sensor_id;sensor_type;location;lat;lon;timestamp;P1;P2;P0
42950;PMS7003;28592;51.064;17.192;2022-11-20T00:01:18;18;12;7
42950;PMS7003;28592;51.064;17.192;2022-11-20T00:04:07;33;15;8
42950;PMS7003;28592;51.064;17.192;2022-11-20T00:06:56;28;11;6
42950;PMS7003;28592;51.064;17.192;2022-11-20T00:09:41;47;23;6
42950;PMS7003;28592;51.064;17.192;2022-11-20T00:12:28;47;26;11
42950;PMS7003;28592;51.064;17.192;2022-11-20T00:15:17;30;24;11
42950;PMS7003;28592;51.064;17.192;2022-11-20T00:18:03;28;22;7
42950;PMS7003;28592;51.064;17.192;2022-11-20T00:20:49;47;19;8
42950;PMS7003;28592;51.064;17.192;2022-11-20T00:23:35;21;15;7
42950;PMS7003;28592;51.064;17.192;2022-11-20T00:26:21;28;22;12
42950;PMS7003;28592;51.064;17.192;2022-11-20T00:29:08;30;25;10
42950;PMS7003;28592;51.064;17.192;2022-11-20T00:31:55;45;25;8
42950;PMS7003;28592;51.064;17.192;2022-11-20T00:34:40;36;30;15
42950;PMS7003;28592;51.064;17.192;2022-11-20T00:37:25;22;16;10
42950;PMS7003;28592;51.064;17.192;2022-11-20T00:40:11;23;17;11
42950;PMS7003;28592;51.064;17.192;2022-11-20T00:42:57;44;21;10
42950;PMS7003;28592;51.064;17.192;2022-11-20T00:45:43;41;24;9
42950;PMS7003;28592;51.064;17.192;2022-11-20T00:48:28;47;25;10
42950;PMS7003;28592;51.064;17.192;2022-11-20T00:51:16;39;20;8
42950;PMS7003;28592;51.064;17.192;2022-11-20T00:54:07;33;15;11
42950;PMS7003;28592;51.064;17.192;2022-11-20T00:56:53;38;15;5
42950;PMS7003;28592;51.064;17.192;2022-11-20T00:59:38;34;10;7
42950;PMS7003;28592;51.064;17.192;2022-11-20T01:02:24;32;26;11
42950;PMS7003;28592;51.064;17.192;2022-11-20T01:05:12;35;18;10
42950;PMS7003;28592;51.064;17.192;2022-11-20T01:07:57;35;22;9
42950;PMS7003;28592;51.064;17.192;2022-11-20T01:10:43;26;21;12
42950;PMS7003;28592;51.064;17.192;2022-11-20T01:13:29;18;12;6
42950;PMS7003;28592;51.064;17.192;2022-11-20T01:16:25;39;22;11
42950;PMS7003;28592;51.064;17.192;2022-11-20T01:19:17;27;21;8
42950;PMS7003;28592;51.064;17.192;2022-11-20T01:22:04;22;16;8
42950;PMS7003;28592;51.064;17.192;2022-11-20T01:24:52;31;14;5
42950;PMS7003;28592;51.064;17.192;2022-11-20T01:27:38;24;18;7
42950;PMS7003;28592;51.064;17.192;2022-11-20T01:30:23;22;16;9
42950;PMS7003;28592;51.064;17.192;2022-11-20T01:33:12;33;16;9
42950;PMS7003;28592;51.064;17.192;2022-11-20T01:38:57;29;16;6
42950;PMS7003;28592;51.064;17.192;2022-11-20T01:41:44;30;17;7
42950;PMS7003;28592;51.064;17.192;2022-11-20T01:44:47;30;24;9
42950;PMS7003;28592;51.064;17.192;2022-11-20T01:47:39;37;17;9
42950;PMS7003;28592;51.064;17.192;2022-11-20T01:50:27;20;15;8
42950;PMS7003;28592;51.064;17.192;2022-11-20T01:53:15;35;9;5
42950;PMS7003;28592;51.064;17.192;2022-11-20T01:56:06;26;13;7
42950;PMS7003;28592;51.064;17.192;2022-11-20T01:58:56;33;14;5
42950;PMS7003;28592;51.064;17.192;2022-11-20T02:01:45;23;10;9
42950;PMS7003;28592;51.064;17.192;2022-11-20T02:04:34;32;26;11
42950;PMS7003;28592;51.064;17.192;2022-11-20T02:07:20;39;20;9
42950;PMS7003;28592;51.064;17.192;2022-11-20T02:10:07;25;17;11
42950;PMS7003;28592;51.064;17.192;2022-11-20T02:12:52;25;12;7
42950;PMS7003;28592;51.064;17.192;2022-11-20T02:15:52;20;14;7
42950;PMS7003;28592;51.064;17.192;2022-11-20T02:18:42;35;15;9
42950;PMS7003;28592;51.064;17.192;2022-11-20T02:24:28;45;27;14
42950;PMS7003;28592;51.064;17.192;2022-11-20T02:27:16;14;8;4
42950;PMS7003;28592;51.064;17.192;2022-11-20T02:30:03;15;9;3
42950;PMS7003;28592;51.064;17.192;2022-11-20T02:32:52;33;16;9
42950;PMS7003;28592;51.064;17.192;2022-11-20T02:35:44;34;11;5
42950;PMS7003;28592;51.064;17.192;2022-11-20T02:38:34;20;14;7
42950;PMS7003;28592;51.064;17.192;2022-11-20T02:41:20;17;11;3
42950;PMS7003;28592;51.064;17.192;2022-11-20T02:44:05;17;11;6
42950;PMS7003;28592;51.064;17.192;2022-11-20T02:46:51;20;14;9
42950;PMS7003;28592;51.064;17.192;2022-11-20T02:49:36;20;14;8
42950;PMS7003;28592;51.064;17.192;2022-11-20T02:52:24;45;15;7
42950;PMS7003;28592;51.064;17.192;2022-11-20T02:55:10;19;13;7
42950;PMS7003;28592;51.064;17.192;2022-11-20T02:57:56;19;13;5
42950;PMS7003;28592;51.064;17.192;2022-11-20T03:00:44;15;9;5
42950;PMS7003;28592;51.064;17.192;2022-11-20T03:03:30;17;11;5
42950;PMS7003;28592;51.064;17.192;2022-11-20T03:06:18;20;14;6
42950;PMS7003;28592;51.064;17.192;2022-11-20T03:09:03;26;20;9
42950;PMS7003;28592;51.064;17.192;2022-11-20T03:11:48;40;17;7
42950;PMS7003;28592;51.064;17.192;2022-11-20T03:14:34;21;16;7
42950;PMS7003;28592;51.064;17.192;2022-11-20T03:17:19;14;8;3
42950;PMS7003;28592;51.064;17.192;2022-11-20T03:20:08;20;14;7
42950;PMS7003;28592;51.064;17.192;2022-11-20T03:22:57;30;17;9
42950;PMS7003;28592;51.064;17.192;2022-11-20T03:25:42;17;11;4
42950;PMS7003;28592;51.064;17.192;2022-11-20T03:28:30;18;12;5
42950;PMS7003;28592;51.064;17.192;2022-11-20T03:31:16;35;18;11
42950;PMS7003;28592;51.064;17.192;2022-11-20T03:34:04;19;13;8
42950;PMS7003;28592;51.064;17.192;2022-11-20T03:36:52;40;15;8
42950;PMS7003;28592;51.064;17.192;2022-11-20T03:39:37;30;7;3
42950;PMS7003;28592;51.064;17.192;2022-11-20T03:42:25;20;14;6
42950;PMS7003;28592;51.064;17.192;2022-11-20T03:45:22;29;9;5
42950;PMS7003;28592;51.064;17.192;2022-11-20T03:48:08;30;13;5
42950;PMS7003;28592;51.064;17.192;2022-11-20T03:53:55;22;17;10
42950;PMS7003;28592;51.064;17.192;2022-11-20T03:56:47;18;12;6
42950;PMS7003;28592;51.064;17.192;2022-11-20T03:59:35;18;12;4
42950;PMS7003;28592;51.064;17.192;2022-11-20T04:02:24;25;7;5
42950;PMS7003;28592;51.064;17.192;2022-11-20T04:05:13;39;14;8
42950;PMS7003;28592;51.064;17.192;2022-11-20T04:07:58;36;17;5
42950;PMS7003;28592;51.064;17.192;2022-11-20T04:10:43;24;7;5
42950;PMS7003;28592;51.064;17.192;2022-11-20T04:13:28;37;15;9
42950;PMS7003;28592;51.064;17.192;2022-11-20T04:16:14;40;27;7
42950;PMS7003;28592;51.064;17.192;2022-11-20T04:19:00;15;9;4
42950;PMS7003;28592;51.064;17.192;2022-11-20T04:21:47;32;15;8
42950;PMS7003;28592;51.064;17.192;2022-11-20T04:24:32;19;14;7
42950;PMS7003;28592;51.064;17.192;2022-11-20T04:27:18;17;11;8
42950;PMS7003;28592;51.064;17.192;2022-11-20T04:30:03;33;14;4
42950;PMS7003;28592;51.064;17.192;2022-11-20T04:32:49;37;14;5
42950;PMS7003;28592;51.064;17.192;2022-11-20T04:35:36;19;13;5
42950;PMS7003;28592;51.064;17.192;2022-11-20T04:38:22;22;16;8
42950;PMS7003;28592;51.064;17.192;2022-11-20T04:44:03;17;11;5
42950;PMS7003;28592;51.064;17.192;2022-11-20T04:46:49;25;19;6
42950;PMS7003;28592;51.064;17.192;2022-11-20T04:49:35;16;10;6
42950;PMS7003;28592;51.064;17.192;2022-11-20T04:52:23;20;14;4
42950;PMS7003;28592;51.064;17.192;2022-11-20T04:55:09;30;24;7
42950;PMS7003;28592;51.064;17.192;2022-11-20T04:57:54;19;14;5
42950;PMS7003;28592;51.064;17.192;2022-11-20T05:00:39;20;14;6
42950;PMS7003;28592;51.064;17.192;2022-11-20T05:03:25;23;5;3
42950;PMS7003;28592;51.064;17.192;2022-11-20T05:06:14;48;26;11
42950;PMS7003;28592;51.064;17.192;2022-11-20T05:09:01;18;12;6
42950;PMS7003;28592;51.064;17.192;2022-11-20T05:11:47;12;6;2
42950;PMS7003;28592;51.064;17.192;2022-11-20T05:14:35;28;10;4
42950;PMS7003;28592;51.064;17.192;2022-11-20T05:17:23;20;15;6
42950;PMS7003;28592;51.064;17.192;2022-11-20T05:20:11;36;17;5
42950;PMS7003;28592;51.064;17.192;2022-11-20T05:22:57;27;10;5
42950;PMS7003;28592;51.064;17.192;2022-11-20T05:25:42;19;13;9
42950;PMS7003;28592;51.064;17.192;2022-11-20T05:28:28;23;18;7
42950;PMS7003;28592;51.064;17.192;2022-11-20T05:31:21;17;11;4
42950;PMS7003;28592;51.064;17.192;2022-11-20T05:34:08;18;12;6
42950;PMS7003;28592;51.064;17.192;2022-11-20T05:36:53;40;14;6
42950;PMS7003;28592;51.064;17.192;2022-11-20T05:39:39;13;7;3
42950;PMS7003;28592;51.064;17.192;2022-11-20T05:42:24;28;8;4
42950;PMS7003;28592;51.064;17.192;2022-11-20T05:45:15;27;9;5
42950;PMS7003;28592;51.064;17.192;2022-11-20T05:48:01;29;12;5
42950;PMS7003;28592;51.064;17.192;2022-11-20T05:50:47;32;26;13
42950;PMS7003;28592;51.064;17.192;2022-11-20T05:53:33;40;21;10
42950;PMS7003;28592;51.064;17.192;2022-11-20T05:56:20;33;14;8
42950;PMS7003;28592;51.064;17.192;2022-11-20T05:59:07;22;16;4
42950;PMS7003;28592;51.064;17.192;2022-11-20T06:01:56;27;10;5
42950;PMS7003;28592;51.064;17.192;2022-11-20T06:04:41;24;19;9
42950;PMS7003;28592;51.064;17.192;2022-11-20T06:07:26;33;16;6
42950;PMS7003;28592;51.064;17.192;2022-11-20T06:10:12;16;10;6
42950;PMS7003;28592;51.064;17.192;2022-11-20T06:12:57;13;7;4
42950;PMS7003;28592;51.064;17.192;2022-11-20T06:15:48;29;23;11
42950;PMS7003;28592;51.064;17.192;2022-11-20T06:18:37;13;8;4
42950;PMS7003;28592;51.064;17.192;2022-11-20T06:21:23;34;18;8
42950;PMS7003;28592;51.064;17.192;2022-11-20T06:24:09;20;14;7
42950;PMS7003;28592;51.064;17.192;2022-11-20T06:26:55;21;15;7
42950;PMS7003;28592;51.064;17.192;2022-11-20T06:29:40;28;11;7
42950;PMS7003;28592;51.064;17.192;2022-11-20T06:32:26;22;16;6
42950;PMS7003;28592;51.064;17.192;2022-11-20T06:35:14;20;15;6
42950;PMS7003;28592;51.064;17.192;2022-11-20T06:37:59;21;16;4
42950;PMS7003;28592;51.064;17.192;2022-11-20T06:40:45;22;4;3
42950;PMS7003;28592;51.064;17.192;2022-11-20T06:43:32;24;18;11
42950;PMS7003;28592;51.064;17.192;2022-11-20T06:46:18;21;15;6
42950;PMS7003;28592;51.064;17.192;2022-11-20T06:49:04;21;16;10
42950;PMS7003;28592;51.064;17.192;2022-11-20T06:51:50;18;12;9
42950;PMS7003;28592;51.064;17.192;2022-11-20T06:54:35;23;17;7
42950;PMS7003;28592;51.064;17.192;2022-11-20T06:57:21;41;17;5
42950;PMS7003;28592;51.064;17.192;2022-11-20T07:00:06;25;19;9
42950;PMS7003;28592;51.064;17.192;2022-11-20T07:02:52;26;14;7
42950;PMS7003;28592;51.064;17.192;2022-11-20T07:05:38;28;22;11
42950;PMS7003;28592;51.064;17.192;2022-11-20T07:08:24;26;20;6
42950;PMS7003;28592;51.064;17.192;2022-11-20T07:11:11;43;21;9
42950;PMS7003;28592;51.064;17.192;2022-11-20T07:13:57;27;21;8
42950;PMS7003;28592;51.064;17.192;2022-11-20T07:16:42;43;25;9
42950;PMS7003;28592;51.064;17.192;2022-11-20T07:19:27;27;21;8
42950;PMS7003;28592;51.064;17.192;2022-11-20T07:22:13;16;10;6
42950;PMS7003;28592;51.064;17.192;2022-11-20T07:24:58;17;11;5
42950;PMS7003;28592;51.064;17.192;2022-11-20T07:27:44;30;11;9
42950;PMS7003;28592;51.064;17.192;2022-11-20T07:30:30;27;9;8
42950;PMS7003;28592;51.064;17.192;2022-11-20T07:33:19;27;10;5
42950;PMS7003;28592;51.064;17.192;2022-11-20T07:36:05;29;12;6
42950;PMS7003;28592;51.064;17.192;2022-11-20T07:38:50;20;14;8
42950;PMS7003;28592;51.064;17.192;2022-11-20T07:41:35;16;10;6
42950;PMS7003;28592;51.064;17.192;2022-11-20T07:44:21;23;17;9
42950;PMS7003;28592;51.064;17.192;2022-11-20T07:47:06;15;9;3
42950;PMS7003;28592;51.064;17.192;2022-11-20T07:49:52;28;10;7
42950;PMS7003;28592;51.064;17.192;2022-11-20T07:52:44;29;11;7
42950;PMS7003;28592;51.064;17.192;2022-11-20T07:55:52;30;24;9
42950;PMS7003;28592;51.064;17.192;2022-11-20T07:58:38;19;13;6
42950;PMS7003;28592;51.064;17.192;2022-11-20T08:01:24;24;18;12
42950;PMS7003;28592;51.064;17.192;2022-11-20T08:04:10;17;12;5
42950;PMS7003;28592;51.064;17.192;2022-11-20T08:06:56;34;21;10
42950;PMS7003;28592;51.064;17.192;2022-11-20T08:09:43;26;13;7
42950;PMS7003;28592;51.064;17.192;2022-11-20T08:12:28;27;21;7
42950;PMS7003;28592;51.064;17.192;2022-11-20T08:15:26;26;20;8
42950;PMS7003;28592;51.064;17.192;2022-11-20T08:18:12;24;18;7
42950;PMS7003;28592;51.064;17.192;2022-11-20T08:20:57;26;20;8
42950;PMS7003;28592;51.064;17.192;2022-11-20T08:23:46;37;19;7
42950;PMS7003;28592;51.064;17.192;2022-11-20T08:26:32;21;16;7
42950;PMS7003;28592;51.064;17.192;2022-11-20T08:29:17;39;22;10
42950;PMS7003;28592;51.064;17.192;2022-11-20T08:32:03;22;16;9
42950;PMS7003;28592;51.064;17.192;2022-11-20T08:34:49;51;30;12
42950;PMS7003;28592;51.064;17.192;2022-11-20T08:37:35;24;18;5
42950;PMS7003;28592;51.064;17.192;2022-11-20T08:40:25;30;11;7
42950;PMS7003;28592;51.064;17.192;2022-11-20T08:43:11;18;12;8
42950;PMS7003;28592;51.064;17.192;2022-11-20T08:45:57;32;26;10
42950;PMS7003;28592;51.064;17.192;2022-11-20T08:48:42;23;17;5
42950;PMS7003;28592;51.064;17.192;2022-11-20T08:51:28;29;23;10
42950;PMS7003;28592;51.064;17.192;2022-11-20T08:54:14;38;15;6
42950;PMS7003;28592;51.064;17.192;2022-11-20T08:57:05;25;19;6
42950;PMS7003;28592;51.064;17.192;2022-11-20T08:59:54;35;17;7
42950;PMS7003;28592;51.064;17.192;2022-11-20T09:02:46;25;19;9
42950;PMS7003;28592;51.064;17.192;2022-11-20T09:05:31;27;21;7
42950;PMS7003;28592;51.064;17.192;2022-11-20T09:08:16;34;17;6
42950;PMS7003;28592;51.064;17.192;2022-11-20T09:11:02;22;9;3
42950;PMS7003;28592;51.064;17.192;2022-11-20T09:13:50;14;8;5
42950;PMS7003;28592;51.064;17.192;2022-11-20T09:16:35;35;29;7
42950;PMS7003;28592;51.064;17.192;2022-11-20T09:19:23;16;11;7
42950;PMS7003;28592;51.064;17.192;2022-11-20T09:22:09;27;22;8
42950;PMS7003;28592;51.064;17.192;2022-11-20T09:24:55;34;17;6
42950;PMS7003;28592;51.064;17.192;2022-11-20T09:27:40;46;24;11
42950;PMS7003;28592;51.064;17.192;2022-11-20T09:30:30;28;22;8
42950;PMS7003;28592;51.064;17.192;2022-11-20T09:33:15;18;12;5
42950;PMS7003;28592;51.064;17.192;2022-11-20T09:36:01;35;18;11
42950;PMS7003;28592;51.064;17.192;2022-11-20T09:38:47;31;26;8
42950;PMS7003;28592;51.064;17.192;2022-11-20T09:41:39;21;15;7
42950;PMS7003;28592;51.064;17.192;2022-11-20T09:50:32;28;22;13
42950;PMS7003;28592;51.064;17.192;2022-11-20T09:56:25;25;19;12
42950;PMS7003;28592;51.064;17.192;2022-11-20T09:59:18;40;19;8
42950;PMS7003;28592;51.064;17.192;2022-11-20T10:05:27;33;21;9
42950;PMS7003;28592;51.064;17.192;2022-11-20T10:11:05;21;16;6
42950;PMS7003;28592;51.064;17.192;2022-11-20T10:14:04;45;25;10
42950;PMS7003;28592;51.064;17.192;2022-11-20T10:19:56;37;18;9
42950;PMS7003;28592;51.064;17.192;2022-11-20T10:25:46;45;20;9
42950;PMS7003;28592;51.064;17.192;2022-11-20T10:28:46;30;10;7
42950;PMS7003;28592;51.064;17.192;2022-11-20T10:31:43;44;14;6
42950;PMS7003;28592;51.064;17.192;2022-11-20T10:37:30;19;14;5
42950;PMS7003;28592;51.064;17.192;2022-11-20T10:40:23;31;13;7
42950;PMS7003;28592;51.064;17.192;2022-11-20T10:43:19;38;20;5
42950;PMS7003;28592;51.064;17.192;2022-11-20T10:46:18;14;8;6
42950;PMS7003;28592;51.064;17.192;2022-11-20T10:55:11;20;14;8
42950;PMS7003;28592;51.064;17.192;2022-11-20T11:00:52;32;15;8
42950;PMS7003;28592;51.064;17.192;2022-11-20T11:03:49;17;11;7
42950;PMS7003;28592;51.064;17.192;2022-11-20T11:06:40;22;16;6
42950;PMS7003;28592;51.064;17.192;2022-11-20T11:09:35;18;12;4
42950;PMS7003;28592;51.064;17.192;2022-11-20T11:12:27;16;10;5
42950;PMS7003;28592;51.064;17.192;2022-11-20T11:18:11;40;15;5
42950;PMS7003;28592;51.064;17.192;2022-11-20T11:21:02;35;17;10
42950;PMS7003;28592;51.064;17.192;2022-11-20T11:23:57;24;18;5
42950;PMS7003;28592;51.064;17.192;2022-11-20T11:26:50;32;14;6
42950;PMS7003;28592;51.064;17.192;2022-11-20T11:29:40;19;13;4
42950;PMS7003;28592;51.064;17.192;2022-11-20T11:32:25;26;21;7
42950;PMS7003;28592;51.064;17.192;2022-11-20T11:38:27;23;17;8
42950;PMS7003;28592;51.064;17.192;2022-11-20T11:41:11;27;10;7
42950;PMS7003;28592;51.064;17.192;2022-11-20T11:44:20;25;19;4
42950;PMS7003;28592;51.064;17.192;2022-11-20T11:47:35;21;15;5
42950;PMS7003;28592;51.064;17.192;2022-11-20T11:58:56;15;9;6
42950;PMS7003;28592;51.064;17.192;2022-11-20T12:01:47;31;25;7
42950;PMS7003;28592;51.064;17.192;2022-11-20T12:07:39;32;15;6
42950;PMS7003;28592;51.064;17.192;2022-11-20T12:10:36;17;11;8
42950;PMS7003;28592;51.064;17.192;2022-11-20T12:16:26;19;13;7
42950;PMS7003;28592;51.064;17.192;2022-11-20T12:19:15;29;12;5
42950;PMS7003;28592;51.064;17.192;2022-11-20T12:25:08;20;14;8
42950;PMS7003;28592;51.064;17.192;2022-11-20T12:31:04;36;16;8
42950;PMS7003;28592;51.064;17.192;2022-11-20T12:34:15;40;22;7
42950;PMS7003;28592;51.064;17.192;2022-11-20T12:37:02;34;10;5
42950;PMS7003;28592;51.064;17.192;2022-11-20T12:39:51;21;15;6
42950;PMS7003;28592;51.064;17.192;2022-11-20T12:42:45;30;11;6
42950;PMS7003;28592;51.064;17.192;2022-11-20T12:54:46;33;16;8
42950;PMS7003;28592;51.064;17.192;2022-11-20T13:00:38;17;11;5
42950;PMS7003;28592;51.064;17.192;2022-11-20T13:06:34;36;18;7
42950;PMS7003;28592;51.064;17.192;2022-11-20T13:09:24;17;11;5
42950;PMS7003;28592;51.064;17.192;2022-11-20T13:12:16;30;24;7
42950;PMS7003;28592;51.064;17.192;2022-11-20T13:18:09;17;11;5
42950;PMS7003;28592;51.064;17.192;2022-11-20T13:20:56;12;6;3
42950;PMS7003;28592;51.064;17.192;2022-11-20T13:23:42;34;21;9
42950;PMS7003;28592;51.064;17.192;2022-11-20T13:26:29;14;9;3
42950;PMS7003;28592;51.064;17.192;2022-11-20T13:29:25;21;8;5
42950;PMS7003;28592;51.064;17.192;2022-11-20T13:32:16;19;13;7
42950;PMS7003;28592;51.064;17.192;2022-11-20T13:35:04;37;18;6
42950;PMS7003;28592;51.064;17.192;2022-11-20T13:40:55;28;10;8
42950;PMS7003;28592;51.064;17.192;2022-11-20T13:43:42;31;14;3
42950;PMS7003;28592;51.064;17.192;2022-11-20T13:49:39;15;10;5
42950;PMS7003;28592;51.064;17.192;2022-11-20T14:01:21;18;12;4
42950;PMS7003;28592;51.064;17.192;2022-11-20T14:04:09;33;21;11
42950;PMS7003;28592;51.064;17.192;2022-11-20T14:07:05;32;14;10
42950;PMS7003;28592;51.064;17.192;2022-11-20T14:09:52;19;13;6
42950;PMS7003;28592;51.064;17.192;2022-11-20T14:12:41;33;17;7
42950;PMS7003;28592;51.064;17.192;2022-11-20T14:15:30;28;22;11
42950;PMS7003;28592;51.064;17.192;2022-11-20T14:18:19;23;17;6
42950;PMS7003;28592;51.064;17.192;2022-11-20T14:21:09;33;27;6
42950;PMS7003;28592;51.064;17.192;2022-11-20T14:26:52;23;17;8
42950;PMS7003;28592;51.064;17.192;2022-11-20T14:29:40;27;22;8
42950;PMS7003;28592;51.064;17.192;2022-11-20T14:32:28;41;25;8
42950;PMS7003;28592;51.064;17.192;2022-11-20T14:38:13;34;15;7
42950;PMS7003;28592;51.064;17.192;2022-11-20T14:44:02;38;21;4
42950;PMS7003;28592;51.064;17.192;2022-11-20T14:46:49;20;14;8
42950;PMS7003;28592;51.064;17.192;2022-11-20T14:49:36;52;24;7
42950;PMS7003;28592;51.064;17.192;2022-11-20T14:52:23;23;17;9
42950;PMS7003;28592;51.064;17.192;2022-11-20T14:55:13;30;24;9
42950;PMS7003;28592;51.064;17.192;2022-11-20T14:58:04;49;21;11
42950;PMS7003;28592;51.064;17.192;2022-11-20T15:00:57;47;24;11
42950;PMS7003;28592;51.064;17.192;2022-11-20T15:03:45;20;14;5
42950;PMS7003;28592;51.064;17.192;2022-11-20T15:06:30;21;15;10
42950;PMS7003;28592;51.064;17.192;2022-11-20T15:09:16;45;22;10
42950;PMS7003;28592;51.064;17.192;2022-11-20T15:12:05;24;18;10
42950;PMS7003;28592;51.064;17.192;2022-11-20T15:14:53;24;19;9
42950;PMS7003;28592;51.064;17.192;2022-11-20T15:17:40;22;16;9
42950;PMS7003;28592;51.064;17.192;2022-11-20T15:20:27;33;20;15
42950;PMS7003;28592;51.064;17.192;2022-11-20T15:23:16;39;32;14
42950;PMS7003;28592;51.064;17.192;2022-11-20T15:26:08;42;22;12
42950;PMS7003;28592;51.064;17.192;2022-11-20T15:28:55;50;32;11
42950;PMS7003;28592;51.064;17.192;2022-11-20T15:31:41;53;35;19
42950;PMS7003;28592;51.064;17.192;2022-11-20T15:34:32;48;38;17
42950;PMS7003;28592;51.064;17.192;2022-11-20T15:37:21;55;38;13
42950;PMS7003;28592;51.064;17.192;2022-11-20T15:40:09;41;22;13
42950;PMS7003;28592;51.064;17.192;2022-11-20T15:42:55;30;24;16
42950;PMS7003;28592;51.064;17.192;2022-11-20T15:48:47;36;24;15
42950;PMS7003;28592;51.064;17.192;2022-11-20T15:51:39;31;25;13
42950;PMS7003;28592;51.064;17.192;2022-11-20T15:54:28;34;28;14
42950;PMS7003;28592;51.064;17.192;2022-11-20T15:57:14;42;25;13
42950;PMS7003;28592;51.064;17.192;2022-11-20T15:59:59;50;28;13
42950;PMS7003;28592;51.064;17.192;2022-11-20T16:02:45;26;20;14
42950;PMS7003;28592;51.064;17.192;2022-11-20T16:05:30;27;21;13
42950;PMS7003;28592;51.064;17.192;2022-11-20T16:08:16;27;21;6
42950;PMS7003;28592;51.064;17.192;2022-11-20T16:11:02;33;15;13
42950;PMS7003;28592;51.064;17.192;2022-11-20T16:13:51;38;31;13
42950;PMS7003;28592;51.064;17.192;2022-11-20T16:16:49;50;28;18
42950;PMS7003;28592;51.064;17.192;2022-11-20T16:19:36;30;24;16
42950;PMS7003;28592;51.064;17.192;2022-11-20T16:22:23;59;39;18
42950;PMS7003;28592;51.064;17.192;2022-11-20T16:25:09;36;30;16
42950;PMS7003;28592;51.064;17.192;2022-11-20T16:27:54;36;30;15
42950;PMS7003;28592;51.064;17.192;2022-11-20T16:30:40;34;28;16
42950;PMS7003;28592;51.064;17.192;2022-11-20T16:33:26;36;30;17
42950;PMS7003;28592;51.064;17.192;2022-11-20T16:36:12;60;32;17
42950;PMS7003;28592;51.064;17.192;2022-11-20T16:39:00;52;16;7
42950;PMS7003;28592;51.064;17.192;2022-11-20T16:41:48;44;35;21
42950;PMS7003;28592;51.064;17.192;2022-11-20T16:44:35;34;28;15
42950;PMS7003;28592;51.064;17.192;2022-11-20T16:47:20;46;30;18
42950;PMS7003;28592;51.064;17.192;2022-11-20T16:50:06;25;20;14
42950;PMS7003;28592;51.064;17.192;2022-11-20T16:52:52;46;28;17
42950;PMS7003;28592;51.064;17.192;2022-11-20T16:55:37;47;30;17
42950;PMS7003;28592;51.064;17.192;2022-11-20T16:58:23;52;32;18
42950;PMS7003;28592;51.064;17.192;2022-11-20T17:01:09;44;35;17
42950;PMS7003;28592;51.064;17.192;2022-11-20T17:04:00;70;39;17
42950;PMS7003;28592;51.064;17.192;2022-11-20T17:06:47;39;32;16
42950;PMS7003;28592;51.064;17.192;2022-11-20T17:09:36;39;32;17
42950;PMS7003;28592;51.064;17.192;2022-11-20T17:12:25;48;34;19
42950;PMS7003;28592;51.064;17.192;2022-11-20T17:15:11;40;32;16
42950;PMS7003;28592;51.064;17.192;2022-11-20T17:18:00;49;32;17
42950;PMS7003;28592;51.064;17.192;2022-11-20T17:20:51;26;14;6
42950;PMS7003;28592;51.064;17.192;2022-11-20T17:23:37;41;24;13
42950;PMS7003;28592;51.064;17.192;2022-11-20T17:26:24;35;29;12
42950;PMS7003;28592;51.064;17.192;2022-11-20T17:29:13;45;22;14
42950;PMS7003;28592;51.064;17.192;2022-11-20T17:32:00;47;29;15
42950;PMS7003;28592;51.064;17.192;2022-11-20T17:34:45;28;22;15
42950;PMS7003;28592;51.064;17.192;2022-11-20T17:37:31;29;23;10
42950;PMS7003;28592;51.064;17.192;2022-11-20T17:40:16;54;33;15
42950;PMS7003;28592;51.064;17.192;2022-11-20T17:43:02;38;20;13
42950;PMS7003;28592;51.064;17.192;2022-11-20T17:45:48;47;27;14
42950;PMS7003;28592;51.064;17.192;2022-11-20T17:48:34;38;31;15
42950;PMS7003;28592;51.064;17.192;2022-11-20T17:51:22;25;20;11
42950;PMS7003;28592;51.064;17.192;2022-11-20T17:54:12;52;33;14
42950;PMS7003;28592;51.064;17.192;2022-11-20T17:56:58;36;30;13
42950;PMS7003;28592;51.064;17.192;2022-11-20T17:59:55;38;25;16
42950;PMS7003;28592;51.064;17.192;2022-11-20T18:02:40;50;30;11
42950;PMS7003;28592;51.064;17.192;2022-11-20T18:05:26;36;17;8
42950;PMS7003;28592;51.064;17.192;2022-11-20T18:08:11;35;18;13
42950;PMS7003;28592;51.064;17.192;2022-11-20T18:10:57;45;25;12
42950;PMS7003;28592;51.064;17.192;2022-11-20T18:13:43;35;30;12
42950;PMS7003;28592;51.064;17.192;2022-11-20T18:16:45;38;31;19
42950;PMS7003;28592;51.064;17.192;2022-11-20T18:19:39;54;37;12
42950;PMS7003;28592;51.064;17.192;2022-11-20T18:22:26;51;31;17
42950;PMS7003;28592;51.064;17.192;2022-11-20T18:25:12;43;23;11
42950;PMS7003;28592;51.064;17.192;2022-11-20T18:27:57;49;31;14
42950;PMS7003;28592;51.064;17.192;2022-11-20T18:30:47;38;17;11
42950;PMS7003;28592;51.064;17.192;2022-11-20T18:33:36;36;30;17
42950;PMS7003;28592;51.064;17.192;2022-11-20T18:36:26;42;30;12
42950;PMS7003;28592;51.064;17.192;2022-11-20T18:39:13;36;30;10
42950;PMS7003;28592;51.064;17.192;2022-11-20T18:42:11;41;24;14
42950;PMS7003;28592;51.064;17.192;2022-11-20T18:45:09;35;29;19
42950;PMS7003;28592;51.064;17.192;2022-11-20T18:47:55;55;33;17
42950;PMS7003;28592;51.064;17.192;2022-11-20T18:50:40;32;26;11
42950;PMS7003;28592;51.064;17.192;2022-11-20T18:53:26;34;28;17
42950;PMS7003;28592;51.064;17.192;2022-11-20T18:56:11;51;32;18
42950;PMS7003;28592;51.064;17.192;2022-11-20T18:59:00;36;30;12
42950;PMS7003;28592;51.064;17.192;2022-11-20T19:01:49;43;34;15
42950;PMS7003;28592;51.064;17.192;2022-11-20T19:04:35;60;35;15
42950;PMS7003;28592;51.064;17.192;2022-11-20T19:07:23;51;18;8
42950;PMS7003;28592;51.064;17.192;2022-11-20T19:10:13;38;31;13
42950;PMS7003;28592;51.064;17.192;2022-11-20T19:13:03;44;35;11
42950;PMS7003;28592;51.064;17.192;2022-11-20T19:15:51;58;38;20
42950;PMS7003;28592;51.064;17.192;2022-11-20T19:18:41;73;46;23
42950;PMS7003;28592;51.064;17.192;2022-11-20T19:21:28;46;24;13
42950;PMS7003;28592;51.064;17.192;2022-11-20T19:24:18;60;29;12
42950;PMS7003;28592;51.064;17.192;2022-11-20T19:27:04;50;23;10
42950;PMS7003;28592;51.064;17.192;2022-11-20T19:29:49;51;21;12
42950;PMS7003;28592;51.064;17.192;2022-11-20T19:32:35;37;30;15
42950;PMS7003;28592;51.064;17.192;2022-11-20T19:35:23;51;34;16
42950;PMS7003;28592;51.064;17.192;2022-11-20T19:38:09;55;36;19
42950;PMS7003;28592;51.064;17.192;2022-11-20T19:40:56;77;59;33
42950;PMS7003;28592;51.064;17.192;2022-11-20T19:43:41;50;32;14
42950;PMS7003;28592;51.064;17.192;2022-11-20T19:46:32;62;28;12
42950;PMS7003;28592;51.064;17.192;2022-11-20T19:49:22;36;30;12
42950;PMS7003;28592;51.064;17.192;2022-11-20T19:52:07;56;38;16